Time;durP1;ratioP1;P1;durP2;ratioP2;P2;SDS_P1;SDS_P2;PMS_P1;PMS_P2;Temp;Humidity;BMP_temperature;BMP_pressure;BME280_temperature;BME280_humidity;BME280_pressure;Samples;Min_cycle;Max_cycle;Signal;HPM_P1;HPM_P2
2021/01/25 00:00:34;;;;;;;5.77;3.93;;;2.50;99.90;;;;;;5095002;28;20274;-69
2021/01/25 00:02:59;;;;;;;4.20;3.23;;;2.40;99.90;;;;;;5095382;28;20257;-69
2021/01/25 00:05:26;;;;;;;9.20;4.50;;;2.50;92.60;;;;;;5095184;28;20178;-69
2021/01/25 00:07:52;;;;;;;7.60;4.47;;;2.30;99.90;;;;;;5094639;28;20234;-69
2021/01/25 00:10:17;;;;;;;3.80;3.33;;;2.40;99.90;;;;;;5095069;28;20221;-69
2021/01/25 00:12:43;;;;;;;5.97;3.87;;;2.50;98.50;;;;;;5094784;28;20167;-69
2021/01/25 00:15:09;;;;;;;7.63;4.17;;;2.60;99.90;;;;;;5095094;28;20170;-69
2021/01/25 00:17:34;;;;;;;6.03;4.75;;;2.60;85.40;;;;;;5094857;28;20175;-69
2021/01/25 00:20:00;;;;;;;9.80;4.27;;;2.60;99.90;;;;;;5093379;28;20694;-69
2021/01/25 00:22:27;;;;;;;5.50;3.80;;;2.50;99.90;;;;;;5094900;28;20563;-68
2021/01/25 00:24:53;;;;;;;5.18;3.55;;;2.60;94.90;;;;;;5094529;28;20651;-69
2021/01/25 00:27:18;;;;;;;9.20;5.10;;;2.60;99.90;;;;;;5094509;28;20236;-69
2021/01/25 00:29:44;;;;;;;5.47;3.40;;;2.40;99.90;;;;;;5094322;28;20183;-69
2021/01/25 00:32:10;;;;;;;8.90;4.50;;;2.50;99.90;;;;;;5093828;28;20172;-69
2021/01/25 00:34:38;;;;;;;11.83;4.00;;;2.50;99.90;;;;;;5094518;28;20589;-69
2021/01/25 00:37:03;;;;;;;5.70;3.63;;;2.40;99.90;;;;;;5094344;28;20186;-67
2021/01/25 00:39:29;;;;;;;10.53;4.33;;;2.40;99.90;;;;;;5094315;28;20187;-69
2021/01/25 00:41:54;;;;;;;6.23;4.80;;;2.40;99.90;;;;;;5094584;28;20163;-69
2021/01/25 00:44:20;;;;;;;5.20;3.90;;;2.40;99.90;;;;;;5094245;28;20168;-69
2021/01/25 00:46:45;;;;;;;4.90;3.30;;;2.50;99.90;;;;;;5094153;28;20225;-69
2021/01/25 00:49:11;;;;;;;4.77;3.63;;;2.60;99.90;;;;;;5094163;28;20174;-69
2021/01/25 00:51:37;;;;;;;4.40;3.20;;;2.60;99.90;;;;;;5094221;28;20166;-69
2021/01/25 00:54:02;;;;;;;6.67;3.20;;;2.50;99.90;;;;;;5094205;28;20588;-68
2021/01/25 00:56:28;;;;;;;7.93;5.10;;;2.50;99.90;;;;;;5093881;28;20167;-69
2021/01/25 00:58:53;;;;;;;9.70;3.53;;;2.50;99.90;;;;;;5092700;28;20175;-68
2021/01/25 01:01:19;;;;;;;7.57;3.60;;;2.50;99.90;;;;;;5093784;28;20195;-69
2021/01/25 01:03:44;;;;;;;6.07;3.87;;;2.50;99.90;;;;;;5092640;28;20172;-69
2021/01/25 01:06:10;;;;;;;4.53;4.10;;;2.50;99.90;;;;;;5092609;28;20730;-69
2021/01/25 01:08:35;;;;;;;3.90;3.53;;;2.50;99.90;;;;;;5092355;28;20676;-69
2021/01/25 01:11:01;;;;;;;5.80;3.50;;;2.50;99.90;;;;;;5093658;28;20192;-69
2021/01/25 01:13:26;;;;;;;5.73;2.93;;;2.40;99.90;;;;;;5094569;28;20209;-69
2021/01/25 01:15:52;;;;;;;3.83;2.97;;;2.50;99.90;;;;;;5094049;28;20274;-69
2021/01/25 01:18:18;;;;;;;7.83;3.80;;;2.50;99.90;;;;;;5093624;28;20253;-69
2021/01/25 01:20:43;;;;;;;3.40;3.10;;;2.40;99.90;;;;;;5093609;28;20662;-69
2021/01/25 01:23:09;;;;;;;6.37;3.13;;;2.50;99.90;;;;;;5093864;28;20500;-69
2021/01/25 01:25:34;;;;;;;6.57;3.30;;;2.60;99.90;;;;;;5093625;28;20202;-69
2021/01/25 01:28:00;;;;;;;4.33;3.67;;;2.50;99.90;;;;;;5093370;28;20203;-69
2021/01/25 01:30:26;;;;;;;6.87;3.90;;;2.30;99.90;;;;;;5092040;28;20236;-69
2021/01/25 01:32:52;;;;;;;3.77;2.97;;;2.40;99.90;;;;;;5093498;28;20163;-69
2021/01/25 01:35:17;;;;;;;5.50;3.50;;;2.50;99.90;;;;;;5093525;28;20816;-69
2021/01/25 01:37:43;;;;;;;3.97;3.10;;;2.30;99.90;;;;;;5093345;28;20197;-69
2021/01/25 01:40:11;;;;;;;4.63;3.53;;;2.30;99.90;;;;;;5093310;28;20190;-69
2021/01/25 01:42:37;;;;;;;3.35;2.90;;;2.20;99.90;;;;;;5093064;28;20206;-69
2021/01/25 01:45:05;;;;;;;7.65;3.95;;;2.40;99.90;;;;;;5093909;28;20628;-69
2021/01/25 01:47:32;;;;;;;4.45;3.35;;;2.20;99.90;;;;;;5093183;28;20225;-69
2021/01/25 01:49:58;;;;;;;7.55;4.10;;;2.20;99.90;;;;;;5091803;28;20187;-69
2021/01/25 01:52:23;;;;;;;6.63;3.17;;;2.30;99.90;;;;;;5093230;28;20700;-69
2021/01/25 01:54:50;;;;;;;7.30;3.50;;;2.30;99.90;;;;;;5093246;28;20377;-69
2021/01/25 01:57:16;;;;;;;3.25;2.92;;;2.40;99.90;;;;;;5093389;28;20194;-68
2021/01/25 01:59:42;;;;;;;3.03;2.30;;;2.50;99.90;;;;;;5093356;28;20604;-69
2021/01/25 02:02:08;;;;;;;5.03;3.55;;;2.50;99.90;;;;;;5093176;28;20548;-69
2021/01/25 02:04:34;;;;;;;4.83;2.93;;;2.50;99.90;;;;;;5093076;28;20167;-69
2021/01/25 02:07:05;;;;;;;4.35;3.17;;;2.20;99.90;;;;;;5092865;28;20732;-69
2021/01/25 02:09:33;;;;;;;3.88;3.33;;;2.20;99.90;;;;;;5091720;28;20286;-69
2021/01/25 02:12:00;;;;;;;4.20;2.70;;;2.10;99.90;;;;;;5092971;28;20575;-69
2021/01/25 02:14:26;;;;;;;5.13;2.95;;;2.30;99.90;;;;;;5093441;28;20632;-69
2021/01/25 02:16:51;;;;;;;10.55;3.67;;;2.50;99.90;;;;;;5092796;28;20174;-69
2021/01/25 02:19:49;;;;;;;4.07;3.07;;;2.50;99.90;;;;;;5092752;28;20167;-69
2021/01/25 02:22:43;;;;;;;5.57;3.05;;;2.40;99.90;;;;;;5077060;28;20197;-69
2021/01/25 02:25:26;;;;;;;5.78;2.80;;;2.30;99.90;;;;;;5093159;28;20160;-69
2021/01/25 02:27:52;;;;;;;5.22;2.83;;;2.50;99.90;;;;;;5092982;28;20183;-69
2021/01/25 02:30:18;;;;;;;4.27;3.30;;;2.40;99.90;;;;;;5092714;28;20540;-69
2021/01/25 02:32:46;;;;;;;5.10;3.60;;;2.30;99.90;;;;;;5093069;28;20740;-69
2021/01/25 02:35:15;;;;;;;7.28;2.80;;;2.30;99.90;;;;;;5092960;28;20578;-69
2021/01/25 02:37:42;;;;;;;3.75;2.58;;;2.40;99.90;;;;;;5092653;28;20250;-69
2021/01/25 02:40:10;;;;;;;6.03;3.00;;;2.40;99.90;;;;;;5092838;28;20188;-69
2021/01/25 02:42:38;;;;;;;3.88;2.30;;;2.50;99.90;;;;;;5091367;28;20178;-69
2021/01/25 02:45:05;;;;;;;4.65;3.08;;;2.40;99.90;;;;;;5092609;28;20164;-69
2021/01/25 02:47:31;;;;;;;4.30;3.38;;;2.50;99.90;;;;;;5092499;28;20282;-69
2021/01/25 02:49:57;;;;;;;9.35;3.35;;;2.50;99.90;;;;;;5091259;28;20559;-69
2021/01/25 02:52:23;;;;;;;4.20;3.07;;;2.40;99.90;;;;;;5092574;28;20172;-69
2021/01/25 02:54:49;;;;;;;3.80;3.30;;;2.40;99.90;;;;;;5095045;28;20531;-69
2021/01/25 02:57:15;;;;;;;5.10;3.67;;;2.20;99.90;;;;;;5096367;28;20194;-69
2021/01/25 02:59:42;;;;;;;4.25;3.47;;;2.30;99.90;;;;;;5096410;28;20768;-68
2021/01/25 03:02:09;;;;;;;3.92;3.08;;;2.50;99.90;;;;;;5096244;28;20640;-69
2021/01/25 03:04:36;;;;;;;6.72;3.60;;;2.50;99.90;;;;;;5096543;28;20179;-69
2021/01/25 03:07:03;;;;;;;5.05;3.28;;;2.60;99.90;;;;;;5096010;28;20214;-69
2021/01/25 03:09:30;;;;;;;11.75;3.97;;;2.50;99.90;;;;;;5096678;28;20322;-69
2021/01/25 03:11:56;;;;;;;5.57;3.10;;;2.50;99.90;;;;;;5096102;28;20168;-69
2021/01/25 03:14:22;;;;;;;4.38;3.20;;;2.50;99.90;;;;;;5096072;28;20175;-69
2021/01/25 03:16:48;;;;;;;5.40;3.47;;;2.40;99.90;;;;;;5096313;28;20171;-68
2021/01/25 03:19:14;;;;;;;3.28;2.97;;;2.20;99.90;;;;;;5095933;28;20388;-69
2021/01/25 03:21:53;;;;;;;5.93;3.47;;;2.40;99.90;;;;;;5095932;28;20174;-69
2021/01/25 03:24:19;;;;;;;6.25;3.60;;;2.50;99.90;;;;;;5096209;28;20382;-69
2021/01/25 03:26:45;;;;;;;7.33;3.60;;;2.70;99.90;;;;;;5095805;28;20505;-69
2021/01/25 03:29:12;;;;;;;7.53;3.50;;;2.70;99.90;;;;;;5096193;28;20942;-68
2021/01/25 03:31:39;;;;;;;4.97;3.70;;;2.80;99.90;;;;;;5095919;28;20175;-69
2021/01/25 03:34:06;;;;;;;4.03;2.90;;;2.70;99.90;;;;;;5095557;28;20535;-69
2021/01/25 03:36:31;;;;;;;5.07;3.83;;;2.60;99.90;;;;;;5095830;28;20198;-68
2021/01/25 03:38:58;;;;;;;4.23;3.63;;;2.50;99.90;;;;;;5095828;28;20206;-69
2021/01/25 03:41:24;;;;;;;4.35;2.42;;;2.20;99.90;;;;;;5095466;28;20191;-69
2021/01/25 03:43:50;;;;;;;4.22;3.40;;;2.40;99.90;;;;;;5095420;28;20216;-67
2021/01/25 03:46:16;;;;;;;8.77;3.45;;;2.60;99.90;;;;;;5094131;28;20191;-67
2021/01/25 03:48:41;;;;;;;5.63;3.78;;;2.80;99.90;;;;;;5095301;28;20191;-69
2021/01/25 03:51:07;;;;;;;12.07;4.40;;;2.70;99.90;;;;;;5094976;28;20190;-69
2021/01/25 03:53:33;;;;;;;4.50;3.10;;;2.60;99.90;;;;;;5093761;28;20167;-69
2021/01/25 03:55:59;;;;;;;4.73;3.63;;;2.50;99.90;;;;;;5094805;28;20198;-69
2021/01/25 03:58:28;;;;;;;4.55;3.50;;;2.50;99.90;;;;;;5095017;28;20390;-69
2021/01/25 04:00:53;;;;;;;3.70;3.30;;;2.70;99.90;;;;;;5094611;28;20195;-69
2021/01/25 04:03:19;;;;;;;7.27;4.47;;;2.60;99.90;;;;;;5094805;28;20167;-68
2021/01/25 04:05:45;;;;;;;6.30;4.23;;;2.60;99.90;;;;;;5094525;28;20535;-69
2021/01/25 04:08:11;;;;;;;5.07;4.07;;;2.70;99.90;;;;;;5094352;28;20503;-69
2021/01/25 04:10:37;;;;;;;6.97;3.73;;;2.70;99.90;;;;;;5094370;28;20183;-68
2021/01/25 04:13:03;;;;;;;6.80;3.73;;;2.50;99.90;;;;;;5094386;28;20163;-69
2021/01/25 04:15:28;;;;;;;6.43;4.03;;;2.60;99.90;;;;;;5094665;28;20380;-69
2021/01/25 04:17:54;;;;;;;4.90;3.73;;;2.60;99.90;;;;;;5093480;28;20175;-69
2021/01/25 04:20:20;;;;;;;4.90;4.00;;;2.60;99.90;;;;;;5094608;28;20187;-69
2021/01/25 04:22:45;;;;;;;5.17;4.03;;;2.60;99.90;;;;;;5094758;28;20636;-69
2021/01/25 04:25:12;;;;;;;5.07;4.20;;;2.60;99.90;;;;;;5094712;28;20171;-69
2021/01/25 04:27:37;;;;;;;7.53;3.90;;;2.40;99.90;;;;;;5094473;28;20195;-69
2021/01/25 04:30:08;;;;;;;8.43;3.70;;;2.30;99.90;;;;;;5094745;28;20698;-69
2021/01/25 04:32:37;;;;;;;5.15;3.88;;;2.40;1.00;;;;;;5094895;28;20162;-69
2021/01/25 04:35:11;;;;;;;6.53;4.45;;;2.40;1.00;;;;;;5094409;28;20160;-69
2021/01/25 04:37:38;;;;;;;9.98;4.50;;;2.40;1.00;;;;;;5094385;28;20152;-69
2021/01/25 04:40:07;;;;;;;5.90;3.72;;;2.30;1.00;;;;;;5094407;28;20191;-69
2021/01/25 04:42:33;;;;;;;5.03;4.00;;;2.20;1.00;;;;;;5092961;28;20167;-69
2021/01/25 04:45:00;;;;;;;6.03;4.57;;;2.10;1.00;;;;;;5094140;28;20163;-68
2021/01/25 04:47:26;;;;;;;4.47;3.88;;;2.20;1.00;;;;;;5094001;28;20205;-69
2021/01/25 04:49:52;;;;;;;12.75;5.30;;;2.20;1.00;;;;;;5094070;28;20187;-69
2021/01/25 04:52:18;;;;;;;5.25;4.70;;;2.30;1.00;;;;;;5092689;28;20696;-69
2021/01/25 04:54:46;;;;;;;7.07;4.40;;;2.30;1.00;;;;;;5094105;28;20163;-69
2021/01/25 04:57:14;;;;;;;7.95;4.07;;;2.10;1.00;;;;;;5093966;28;20642;-69
2021/01/25 04:59:43;;;;;;;8.27;5.32;;;2.10;1.00;;;;;;5093889;28;20188;-69
2021/01/25 05:02:09;;;;;;;5.45;3.97;;;2.10;49.10;;;;;;5093878;28;20174;-69
2021/01/25 05:04:34;;;;;;;6.47;4.53;;;1.80;12.90;;;;;;5093723;28;20164;-69
2021/01/25 05:07:00;;;;;;;7.30;5.63;;;1.90;99.90;;;;;;5093561;28;20225;-69
2021/01/25 05:09:26;;;;;;;5.60;4.83;;;1.80;99.90;;;;;;5092291;28;20276;-69
2021/01/25 05:12:02;;;;;;;7.87;4.90;;;1.90;1.00;;;;;;5094910;28;20174;-69
2021/01/25 05:14:40;;;;;;;10.48;5.78;;;2.10;16.50;;;;;;5093795;28;20658;-68
2021/01/25 05:17:11;;;;;;;8.68;6.22;;;1.90;99.90;;;;;;5093340;28;20155;-68
2021/01/25 05:19:43;;;;;;;7.05;4.53;;;2.20;99.90;;;;;;5093594;28;20282;-68
2021/01/25 05:22:20;;;;;;;7.20;5.25;;;2.10;99.90;;;;;;5093986;28;20247;-68
2021/01/25 05:24:55;;;;;;;7.68;5.07;;;2.30;99.90;;;;;;5093720;28;20167;-67
2021/01/25 05:27:31;;;;;;;6.93;4.75;;;2.20;22.50;;;;;;5092954;28;20442;-67
2021/01/25 05:30:11;;;;;;;7.68;5.78;;;2.20;99.90;;;;;;5093453;28;20187;-68
2021/01/25 05:32:53;;;;;;;5.82;5.15;;;2.20;1.00;;;;;;5093528;28;20246;-68
2021/01/25 05:35:22;;;;;;;8.45;5.93;;;2.10;99.90;;;;;;5093360;28;20152;-68
2021/01/25 05:37:58;;;;;;;8.52;5.05;;;2.10;99.90;;;;;;5093362;28;20231;-67
2021/01/25 05:40:26;;;;;;;7.28;5.72;;;2.00;99.90;;;;;;5093065;28;20201;-68
2021/01/25 05:42:52;;;;;;;7.90;6.00;;;2.00;99.90;;;;;;5093110;28;20163;-68
2021/01/25 05:45:18;;;;;;;6.78;5.53;;;1.90;99.90;;;;;;5093025;28;20167;-68
2021/01/25 05:47:49;;;;;;;8.98;6.30;;;1.90;99.90;;;;;;5093052;28;20191;-67
2021/01/25 05:50:28;;;;;;;8.00;5.97;;;2.00;99.90;;;;;;5093133;28;20211;-68
2021/01/25 05:52:56;;;;;;;10.35;5.93;;;1.80;1.00;;;;;;5093142;28;20151;-68
2021/01/25 05:55:22;;;;;;;6.30;5.18;;;2.00;1.00;;;;;;5091744;28;20179;-67
2021/01/25 05:57:48;;;;;;;6.60;5.15;;;1.90;99.90;;;;;;5093082;28;20174;-68
2021/01/25 06:00:14;;;;;;;9.63;6.88;;;2.10;99.90;;;;;;5092803;28;20236;-67
2021/01/25 06:02:49;;;;;;;11.70;6.15;;;2.00;1.00;;;;;;5092780;28;20571;-68
2021/01/25 06:05:25;;;;;;;9.15;5.15;;;1.90;99.90;;;;;;5093190;28;20159;-68
2021/01/25 06:07:51;;;;;;;9.70;6.78;;;1.80;1.00;;;;;;5092838;28;20214;-68
2021/01/25 06:10:23;;;;;;;8.70;5.95;;;1.90;99.90;;;;;;5092968;28;20211;-68
2021/01/25 06:12:57;;;;;;;8.15;5.63;;;2.00;99.90;;;;;;5093017;28;20179;-68
2021/01/25 06:15:28;;;;;;;7.68;5.72;;;1.90;99.90;;;;;;5092872;28;20156;-68
2021/01/25 06:17:57;;;;;;;7.38;6.13;;;1.80;1.00;;;;;;5093202;28;20236;-68
2021/01/25 06:20:27;;;;;;;8.13;6.13;;;1.90;1.00;;;;;;5092860;28;20529;-67
2021/01/25 06:22:53;;;;;;;8.20;6.65;;;1.90;99.90;;;;;;5093459;28;20171;-69
2021/01/25 06:25:19;;;;;;;6.83;5.77;;;1.90;1.00;;;;;;5092883;28;20270;-67
2021/01/25 06:27:45;;;;;;;5.63;4.90;;;1.80;99.90;;;;;;5092673;28;20428;-69
2021/01/25 06:30:11;;;;;;;7.80;5.53;;;1.70;99.90;;;;;;5096018;28;20256;-68
2021/01/25 06:32:42;;;;;;;6.72;5.38;;;1.60;99.90;;;;;;5096970;28;20191;-69
2021/01/25 06:35:11;;;;;;;7.90;6.10;;;1.90;99.90;;;;;;5096888;28;20164;-68
2021/01/25 06:37:37;;;;;;;11.57;6.25;;;2.00;99.90;;;;;;5096697;28;20731;-69
2021/01/25 06:40:11;;;;;;;7.97;6.40;;;1.90;1.00;;;;;;5096707;28;20204;-69
2021/01/25 06:42:42;;;;;;;9.40;6.03;;;1.90;1.00;;;;;;5095195;28;20537;-68
2021/01/25 06:45:10;;;;;;;6.93;5.80;;;1.80;47.10;;;;;;5097388;28;20163;-69
2021/01/25 06:47:37;;;;;;;8.75;6.25;;;1.70;99.90;;;;;;5096519;28;20678;-69
2021/01/25 06:50:04;;;;;;;14.93;7.47;;;1.80;1.00;;;;;;5096386;28;20183;-69
2021/01/25 06:52:36;;;;;;;9.57;6.70;;;1.90;99.90;;;;;;5096375;28;20539;-68
2021/01/25 06:55:04;;;;;;;9.85;6.50;;;2.00;28.60;;;;;;5095981;28;20164;-69
2021/01/25 06:57:33;;;;;;;8.63;6.32;;;1.80;1.00;;;;;;5096041;28;20160;-67
2021/01/25 07:00:14;;;;;;;10.35;6.70;;;2.00;99.90;;;;;;5096431;28;20297;-67
2021/01/25 07:02:59;;;;;;;8.02;5.93;;;2.10;99.90;;;;;;5096257;28;20159;-67
2021/01/25 07:05:38;;;;;;;8.10;5.85;;;2.00;1.00;;;;;;5096382;28;20227;-66
2021/01/25 07:08:21;;;;;;;13.60;7.75;;;1.90;1.00;;;;;;5095747;28;20672;-70
2021/01/25 07:10:55;;;;;;;9.07;6.63;;;2.00;99.90;;;;;;5094800;28;20199;-68
2021/01/25 07:13:22;;;;;;;11.63;6.72;;;1.90;14.70;;;;;;5096051;28;20221;-68
2021/01/25 07:15:48;;;;;;;7.75;5.75;;;2.20;99.90;;;;;;5095873;28;20230;-68
2021/01/25 07:18:14;;;;;;;7.63;6.25;;;2.30;1.00;;;;;;5095921;28;20163;-68
2021/01/25 07:20:45;;;;;;;9.50;5.67;;;2.40;99.90;;;;;;5095982;28;20694;-69
2021/01/25 07:23:14;;;;;;;9.52;6.05;;;2.30;99.90;;;;;;5095928;28;20159;-67
2021/01/25 07:25:40;;;;;;;8.40;5.95;;;2.40;99.90;;;;;;5095951;28;20167;-67
2021/01/25 07:28:05;;;;;;;8.03;7.20;;;2.30;99.90;;;;;;5095681;28;20336;-67
2021/01/25 07:30:32;;;;;;;8.80;7.07;;;2.20;99.90;;;;;;5095770;28;20190;-68
2021/01/25 07:33:02;;;;;;;8.75;6.85;;;2.10;1.00;;;;;;5096000;28;20237;-68
2021/01/25 07:35:28;;;;;;;7.65;5.95;;;2.20;99.90;;;;;;5095759;28;20531;-68
2021/01/25 07:37:53;;;;;;;12.30;6.23;;;2.20;1.00;;;;;;5095905;28;20170;-68
2021/01/25 07:40:22;;;;;;;8.27;6.00;;;2.00;1.00;;;;;;5095498;28;20618;-68
2021/01/25 07:42:48;;;;;;;10.43;5.93;;;2.10;99.90;;;;;;5095695;28;20171;-69
2021/01/25 07:45:14;;;;;;;9.43;6.23;;;2.20;1.00;;;;;;5095361;28;20251;-68
2021/01/25 07:47:44;;;;;;;8.27;5.63;;;2.10;99.90;;;;;;5094549;28;20199;-66
2021/01/25 07:50:11;;;;;;;8.35;6.70;;;2.00;1.00;;;;;;5095099;28;20190;-67
2021/01/25 07:52:36;;;;;;;8.38;6.10;;;1.90;1.00;;;;;;5095369;28;20657;-68
2021/01/25 07:55:12;;;;;;;10.47;7.27;;;2.10;73.40;;;;;;5094985;28;20238;-67
2021/01/25 07:57:38;;;;;;;8.40;6.82;;;1.90;99.90;;;;;;5095141;28;20491;-68
2021/01/25 08:00:24;;;;;;;7.80;6.10;;;1.90;99.90;;;;;;5094941;28;20187;-69
2021/01/25 08:03:21;;;;;;;8.98;6.50;;;2.10;1.00;;;;;;5093196;28;20183;-69
2021/01/25 08:05:50;;;;;;;9.40;7.05;;;2.00;99.90;;;;;;5093636;28;20159;-69
2021/01/25 08:08:17;;;;;;;10.20;5.82;;;2.10;19.20;;;;;;5095045;28;20646;-69
2021/01/25 08:10:42;;;;;;;7.45;6.60;;;2.00;1.00;;;;;;5094737;28;20187;-68
2021/01/25 08:13:17;;;;;;;11.53;6.23;;;2.00;1.00;;;;;;5094781;28;20221;-67
2021/01/25 08:16:00;;;;;;;8.18;5.55;;;2.00;1.00;;;;;;5094947;28;20927;-68
2021/01/25 08:18:48;;;;;;;8.65;6.72;;;2.10;1.00;;;;;;5094836;28;20197;-69
2021/01/25 08:21:18;;;;;;;10.90;7.65;;;2.20;99.90;;;;;;5094454;28;20667;-68
2021/01/25 08:23:47;;;;;;;9.13;7.22;;;2.20;99.90;;;;;;5093061;28;20222;-67
2021/01/25 08:26:12;;;;;;;11.40;6.82;;;2.20;99.90;;;;;;5094752;28;20576;-68
2021/01/25 08:28:42;;;;;;;9.70;7.40;;;2.00;99.90;;;;;;5093144;28;20290;-68
2021/01/25 08:31:17;;;;;;;10.02;6.82;;;2.10;99.90;;;;;;5094528;28;20209;-69
2021/01/25 08:33:57;;;;;;;10.82;6.90;;;2.30;1.00;;;;;;5094692;28;20609;-67
2021/01/25 08:36:35;;;;;;;8.52;7.07;;;2.10;99.90;;;;;;5094524;28;20156;-68
2021/01/25 08:39:08;;;;;;;8.20;7.13;;;2.20;1.00;;;;;;5094137;28;20181;-68
2021/01/25 08:41:34;;;;;;;11.40;7.25;;;2.20;1.00;;;;;;5092935;28;20164;-68
2021/01/25 08:44:02;;;;;;;8.90;7.97;;;2.50;99.90;;;;;;5094512;28;20182;-67
2021/01/25 08:46:33;;;;;;;8.75;7.18;;;2.60;99.90;;;;;;5094120;28;20536;-68
2021/01/25 08:49:32;;;;;;;10.60;7.65;;;2.50;1.00;;;;;;5094560;28;20203;-69
2021/01/25 08:52:04;;;;;;;8.27;6.35;;;2.20;99.90;;;;;;5093070;28;20155;-68
2021/01/25 08:54:38;;;;;;;8.77;6.65;;;2.40;1.00;;;;;;5094016;28;20634;-68
2021/01/25 08:57:21;;;;;;;10.10;6.82;;;2.30;99.90;;;;;;5093629;28;20155;-67
2021/01/25 08:59:47;;;;;;;11.15;6.90;;;2.20;99.90;;;;;;5093566;28;20192;-68
2021/01/25 09:02:25;;;;;;;9.70;7.10;;;2.30;1.00;;;;;;5093985;28;20505;-68
2021/01/25 09:04:53;;;;;;;10.55;7.53;;;2.40;99.90;;;;;;5094113;28;20848;-66
2021/01/25 09:07:22;;;;;;;8.27;6.82;;;2.40;99.90;;;;;;5093444;28;20207;-69
2021/01/25 09:09:47;;;;;;;9.05;7.20;;;2.20;99.90;;;;;;5093676;28;20179;-69
2021/01/25 09:12:15;;;;;;;8.63;6.63;;;2.20;1.00;;;;;;5093377;28;20209;-68
2021/01/25 09:14:41;;;;;;;12.27;7.93;;;2.30;1.00;;;;;;5093908;28;20160;-69
2021/01/25 09:17:08;;;;;;;9.57;8.27;;;2.50;99.90;;;;;;5093517;28;20221;-68
2021/01/25 09:19:35;;;;;;;8.88;7.13;;;2.20;99.90;;;;;;5093239;28;20211;-69
2021/01/25 09:22:00;;;;;;;12.10;7.47;;;2.20;99.90;;;;;;5092055;28;20175;-69
2021/01/25 09:24:26;;;;;;;7.30;6.20;;;2.60;99.90;;;;;;5094184;28;20181;-68
2021/01/25 09:26:51;;;;;;;8.93;7.27;;;2.70;1.00;;;;;;5093684;28;20175;-69
2021/01/25 09:29:18;;;;;;;8.17;7.10;;;2.40;39.10;;;;;;5093217;28;20175;-69
2021/01/25 09:31:43;;;;;;;13.77;7.78;;;2.40;99.90;;;;;;5093527;28;20163;-69
2021/01/25 09:34:09;;;;;;;9.63;7.50;;;2.30;99.90;;;;;;5093330;28;20163;-69
2021/01/25 09:36:35;;;;;;;10.20;8.00;;;2.70;99.90;;;;;;5093420;28;20170;-68
2021/01/25 09:39:01;;;;;;;18.20;10.33;;;2.40;1.00;;;;;;5092094;28;20700;-69
2021/01/25 09:41:27;;;;;;;14.80;8.43;;;2.40;99.90;;;;;;5093324;28;20396;-68
2021/01/25 09:43:54;;;;;;;8.68;6.90;;;2.30;99.90;;;;;;5093373;28;20409;-69
2021/01/25 09:46:20;;;;;;;9.73;7.30;;;2.30;99.90;;;;;;5093324;28;20171;-68
2021/01/25 09:48:46;;;;;;;11.47;8.67;;;2.60;99.90;;;;;;5092953;28;20223;-67
2021/01/25 09:51:11;;;;;;;10.47;8.13;;;2.60;99.90;;;;;;5093135;28;20400;-68
2021/01/25 09:53:37;;;;;;;11.67;7.23;;;2.70;14.80;;;;;;5092935;28;20171;-68
2021/01/25 09:56:02;;;;;;;9.87;6.70;;;2.60;1.00;;;;;;5092820;28;20204;-67
2021/01/25 09:58:28;;;;;;;8.40;7.20;;;2.60;99.90;;;;;;5093630;28;20229;-68
2021/01/25 10:00:54;;;;;;;10.57;6.67;;;2.80;16.50;;;;;;5093391;28;20407;-68
2021/01/25 10:03:19;;;;;;;22.33;8.10;;;2.80;1.00;;;;;;5093252;28;20293;-68
2021/01/25 10:05:45;;;;;;;9.70;8.10;;;2.80;1.00;;;;;;5094291;28;20241;-68
2021/01/25 10:08:11;;;;;;;9.87;6.83;;;2.50;1.00;;;;;;5092535;28;20278;-68
2021/01/25 10:10:36;;;;;;;10.45;7.78;;;2.60;99.90;;;;;;5093213;28;20614;-68
2021/01/25 10:13:02;;;;;;;11.00;7.40;;;2.70;39.50;;;;;;5092695;28;20163;-68
2021/01/25 10:15:28;;;;;;;11.13;8.60;;;2.70;1.00;;;;;;5092843;28;20155;-68
2021/01/25 10:17:53;;;;;;;9.17;6.57;;;2.70;1.00;;;;;;5093139;28;20397;-68
2021/01/25 10:20:19;;;;;;;11.63;8.40;;;2.70;1.00;;;;;;5092980;28;20194;-69
2021/01/25 10:22:45;;;;;;;13.07;8.47;;;2.70;1.00;;;;;;5093067;28;20200;-68
2021/01/25 10:25:11;;;;;;;14.03;9.07;;;2.70;1.00;;;;;;5092699;28;20246;-69
2021/01/25 10:27:38;;;;;;;10.25;6.78;;;2.70;21.00;;;;;;5092769;28;20202;-69
2021/01/25 10:30:05;;;;;;;12.15;8.68;;;3.10;78.70;;;;;;5092888;28;20179;-68
2021/01/25 10:32:31;;;;;;;11.10;7.50;;;3.40;1.00;;;;;;5092750;28;20189;-69
2021/01/25 10:34:58;;;;;;;12.37;7.47;;;3.50;99.90;;;;;;5092990;28;20168;-69
2021/01/25 10:37:24;;;;;;;8.55;6.30;;;3.70;99.90;;;;;;5092912;28;20213;-69
2021/01/25 10:39:50;;;;;;;11.53;7.77;;;3.50;99.90;;;;;;5092645;28;20552;-69
2021/01/25 10:42:15;;;;;;;9.93;6.97;;;3.30;99.90;;;;;;5092509;28;20756;-68
2021/01/25 10:44:41;;;;;;;10.97;7.13;;;3.30;1.00;;;;;;5092658;28;20174;-69
2021/01/25 10:47:06;;;;;;;10.50;7.93;;;3.40;1.00;;;;;;5092722;28;20234;-69
2021/01/25 10:49:32;;;;;;;10.20;8.20;;;3.50;99.90;;;;;;5092851;28;20183;-69
2021/01/25 10:51:57;;;;;;;9.00;7.20;;;3.50;99.90;;;;;;5092509;28;20214;-67
2021/01/25 10:54:25;;;;;;;9.37;8.37;;;3.40;99.90;;;;;;5092619;28;20168;-69
2021/01/25 10:56:51;;;;;;;8.32;6.95;;;3.80;99.90;;;;;;5092652;28;20686;-69
2021/01/25 10:59:16;;;;;;;10.50;7.43;;;3.60;99.90;;;;;;5092531;28;20168;-68
2021/01/25 11:01:42;;;;;;;9.13;7.33;;;3.80;99.90;;;;;;5092391;28;20171;-69
2021/01/25 11:04:07;;;;;;;9.80;7.83;;;3.70;99.90;;;;;;5092786;28;20648;-68
2021/01/25 11:06:33;;;;;;;9.40;7.30;;;3.80;99.90;;;;;;5092342;28;20559;-69
2021/01/25 11:08:58;;;;;;;11.63;8.57;;;3.80;99.90;;;;;;5092410;28;20188;-68
2021/01/25 11:11:24;;;;;;;11.90;7.70;;;3.60;99.90;;;;;;5092296;28;20192;-69
2021/01/25 11:13:49;;;;;;;8.53;7.50;;;3.50;99.90;;;;;;5092376;28;20180;-67
2021/01/25 11:16:15;;;;;;;8.87;7.10;;;3.80;99.90;;;;;;5095546;28;20259;-68
2021/01/25 11:18:40;;;;;;;9.00;6.90;;;4.00;99.90;;;;;;5096987;28;20602;-68
2021/01/25 11:21:06;;;;;;;11.10;7.97;;;3.90;99.90;;;;;;5096300;28;20556;-68
2021/01/25 11:23:31;;;;;;;10.17;7.10;;;4.00;99.90;;;;;;5096347;28;20665;-68
2021/01/25 11:25:57;;;;;;;14.67;8.27;;;4.30;99.90;;;;;;5096587;28;20172;-69
2021/01/25 11:28:23;;;;;;;10.40;8.10;;;4.10;99.90;;;;;;5097206;28;20246;-69
2021/01/25 11:30:49;;;;;;;9.63;7.22;;;4.30;99.90;;;;;;5097597;28;20244;-68
2021/01/25 11:33:15;;;;;;;9.87;7.47;;;4.20;99.90;;;;;;5097768;28;20171;-66
2021/01/25 11:35:41;;;;;;;11.20;7.57;;;4.10;99.90;;;;;;5094452;28;20167;-69
2021/01/25 11:38:06;;;;;;;8.88;7.95;;;4.20;99.90;;;;;;5096251;28;20297;-69
2021/01/25 11:40:32;;;;;;;15.83;9.23;;;3.70;99.90;;;;;;5095272;28;20274;-70
2021/01/25 11:42:58;;;;;;;12.67;9.20;;;3.60;99.90;;;;;;5096295;28;20175;-69
2021/01/25 11:45:23;;;;;;;13.33;8.07;;;3.90;99.90;;;;;;5095525;28;20168;-70
2021/01/25 11:47:49;;;;;;;14.50;9.50;;;4.30;99.90;;;;;;5095494;28;20661;-70
2021/01/25 11:50:15;;;;;;;9.97;8.03;;;4.40;99.90;;;;;;5095833;28;20187;-70
2021/01/25 11:52:41;;;;;;;14.88;8.85;;;4.40;99.90;;;;;;5095779;28;20588;-69
2021/01/25 11:55:07;;;;;;;9.60;7.70;;;4.20;99.90;;;;;;5095371;28;20175;-69
2021/01/25 11:57:33;;;;;;;13.93;9.05;;;4.40;99.90;;;;;;5095088;28;20203;-69
2021/01/25 11:59:59;;;;;;;11.83;8.60;;;4.40;99.90;;;;;;5095275;28;20192;-70
2021/01/25 12:02:25;;;;;;;11.33;8.93;;;4.20;99.90;;;;;;5095343;28;20171;-69
2021/01/25 12:04:51;;;;;;;12.00;9.23;;;4.30;99.90;;;;;;5095551;28;20236;-68
2021/01/25 12:07:19;;;;;;;14.65;10.35;;;4.10;99.90;;;;;;5093613;28;20269;-69
2021/01/25 12:09:44;;;;;;;11.20;8.63;;;4.20;99.90;;;;;;5095173;28;20183;-69
2021/01/25 12:12:10;;;;;;;14.67;9.20;;;4.80;99.90;;;;;;5093848;28;20255;-68
2021/01/25 12:14:35;;;;;;;13.43;9.13;;;4.80;99.90;;;;;;5095109;28;20172;-70
2021/01/25 12:17:01;;;;;;;11.53;8.27;;;5.10;99.90;;;;;;5095174;28;20250;-69
2021/01/25 12:19:26;;;;;;;9.47;8.53;;;5.20;96.70;;;;;;5095284;28;20222;-68
2021/01/25 12:21:52;;;;;;;14.37;9.07;;;5.50;84.70;;;;;;5094375;28;20167;-69
2021/01/25 12:24:17;;;;;;;11.80;10.10;;;5.30;99.90;;;;;;5095547;28;20171;-68
2021/01/25 12:26:43;;;;;;;10.77;9.67;;;5.30;85.70;;;;;;5095041;28;20178;-68
2021/01/25 12:29:09;;;;;;;16.60;10.60;;;5.40;99.90;;;;;;5094761;28;20201;-69
2021/01/25 12:31:35;;;;;;;13.33;9.93;;;4.70;99.90;;;;;;5094604;28;20640;-67
2021/01/25 12:34:00;;;;;;;15.43;11.60;;;4.30;99.90;;;;;;5094600;28;20584;-69
2021/01/25 12:36:26;;;;;;;14.70;11.80;;;4.40;99.90;;;;;;5094557;28;20222;-70
2021/01/25 12:38:51;;;;;;;15.03;10.47;;;4.60;99.90;;;;;;5094098;28;20187;-67
2021/01/25 12:41:17;;;;;;;16.00;11.00;;;4.60;99.90;;;;;;5095008;28;20195;-69
2021/01/25 12:43:43;;;;;;;13.60;10.60;;;4.90;99.90;;;;;;5094389;28;20167;-67
2021/01/25 12:46:08;;;;;;;16.20;12.07;;;4.70;99.90;;;;;;5094503;28;20644;-68
2021/01/25 12:48:34;;;;;;;16.67;11.83;;;4.70;99.90;;;;;;5094465;28;20195;-70
2021/01/25 12:51:00;;;;;;;18.20;11.47;;;4.50;99.90;;;;;;5094160;28;20252;-70
2021/01/25 12:53:26;;;;;;;13.90;9.97;;;4.40;99.90;;;;;;5094602;28;20414;-67
2021/01/25 12:55:52;;;;;;;17.00;11.43;;;4.20;99.90;;;;;;5094351;28;20281;-68
2021/01/25 12:58:18;;;;;;;18.43;12.60;;;4.30;99.90;;;;;;5094314;28;20164;-69